METAR Data
IDs: Format: Raw Decoded Include TAF

Data at: 0201 UTC 01 Mar 2021

LGPZ 010150Z 00000KT 9999 SCT018 SCT080 12/06 Q1025